sensor_id;sensor_type;location;lat;lon;timestamp;P1;durP1;ratioP1;P2;durP2;ratioP2
41077;SDS011;26823;42.662;23.352;2023-08-07T00:02:23;1.23;;;1.10;;
41077;SDS011;26823;42.662;23.352;2023-08-07T00:04:48;1.73;;;1.08;;
41077;SDS011;26823;42.662;23.352;2023-08-07T00:07:13;1.65;;;1.20;;
41077;SDS011;26823;42.662;23.352;2023-08-07T00:09:39;1.38;;;0.98;;
41077;SDS011;26823;42.662;23.352;2023-08-07T00:12:04;1.20;;;1.20;;
41077;SDS011;26823;42.662;23.352;2023-08-07T00:14:36;1.50;;;1.40;;
41077;SDS011;26823;42.662;23.352;2023-08-07T00:17:02;1.30;;;1.20;;
41077;SDS011;26823;42.662;23.352;2023-08-07T00:19:27;1.10;;;1.02;;
41077;SDS011;26823;42.662;23.352;2023-08-07T00:21:53;1.63;;;1.45;;
41077;SDS011;26823;42.662;23.352;2023-08-07T00:24:18;1.40;;;1.30;;
41077;SDS011;26823;42.662;23.352;2023-08-07T00:26:43;1.50;;;1.40;;
41077;SDS011;26823;42.662;23.352;2023-08-07T00:29:09;1.60;;;1.50;;
41077;SDS011;26823;42.662;23.352;2023-08-07T00:31:34;2.28;;;1.48;;
41077;SDS011;26823;42.662;23.352;2023-08-07T00:33:59;2.28;;;1.30;;
41077;SDS011;26823;42.662;23.352;2023-08-07T00:36:25;1.50;;;1.40;;
41077;SDS011;26823;42.662;23.352;2023-08-07T00:38:53;1.52;;;1.42;;
41077;SDS011;26823;42.662;23.352;2023-08-07T00:41:19;1.65;;;1.55;;
41077;SDS011;26823;42.662;23.352;2023-08-07T00:43:45;2.53;;;1.45;;
41077;SDS011;26823;42.662;23.352;2023-08-07T00:46:10;1.60;;;1.50;;
41077;SDS011;26823;42.662;23.352;2023-08-07T00:48:36;2.10;;;1.35;;
41077;SDS011;26823;42.662;23.352;2023-08-07T00:51:02;1.65;;;1.55;;
41077;SDS011;26823;42.662;23.352;2023-08-07T00:53:29;1.83;;;1.73;;
41077;SDS011;26823;42.662;23.352;2023-08-07T00:55:55;1.92;;;1.70;;
41077;SDS011;26823;42.662;23.352;2023-08-07T00:58:22;1.60;;;1.50;;
41077;SDS011;26823;42.662;23.352;2023-08-07T01:00:48;2.90;;;1.63;;
41077;SDS011;26823;42.662;23.352;2023-08-07T01:03:14;1.90;;;1.80;;
41077;SDS011;26823;42.662;23.352;2023-08-07T01:05:39;1.80;;;1.70;;
41077;SDS011;26823;42.662;23.352;2023-08-07T01:08:04;2.22;;;1.92;;
41077;SDS011;26823;42.662;23.352;2023-08-07T01:11:18;2.08;;;1.98;;
41077;SDS011;26823;42.662;23.352;2023-08-07T01:16:01;2.47;;;2.28;;
41077;SDS011;26823;42.662;23.352;2023-08-07T01:18:32;2.15;;;2.05;;
41077;SDS011;26823;42.662;23.352;2023-08-07T01:21:01;2.47;;;2.28;;
41077;SDS011;26823;42.662;23.352;2023-08-07T01:23:28;1.75;;;1.65;;
41077;SDS011;26823;42.662;23.352;2023-08-07T01:25:53;2.45;;;2.28;;
41077;SDS011;26823;42.662;23.352;2023-08-07T01:28:24;2.50;;;2.30;;
41077;SDS011;26823;42.662;23.352;2023-08-07T01:30:54;2.67;;;2.40;;
41077;SDS011;26823;42.662;23.352;2023-08-07T01:33:26;3.15;;;2.50;;
41077;SDS011;26823;42.662;23.352;2023-08-07T01:35:57;4.80;;;2.72;;
41077;SDS011;26823;42.662;23.352;2023-08-07T01:38:26;2.08;;;1.98;;
41077;SDS011;26823;42.662;23.352;2023-08-07T01:40:53;2.80;;;2.50;;
41077;SDS011;26823;42.662;23.352;2023-08-07T01:43:19;2.70;;;2.50;;
41077;SDS011;26823;42.662;23.352;2023-08-07T01:45:44;2.60;;;2.40;;
41077;SDS011;26823;42.662;23.352;2023-08-07T01:48:10;2.58;;;2.38;;
41077;SDS011;26823;42.662;23.352;2023-08-07T01:50:37;3.30;;;2.83;;
41077;SDS011;26823;42.662;23.352;2023-08-07T01:53:03;3.00;;;2.60;;
41077;SDS011;26823;42.662;23.352;2023-08-07T01:55:28;2.85;;;2.65;;
41077;SDS011;26823;42.662;23.352;2023-08-07T01:57:54;2.70;;;2.50;;
41077;SDS011;26823;42.662;23.352;2023-08-07T02:00:19;3.30;;;3.08;;
41077;SDS011;26823;42.662;23.352;2023-08-07T02:02:45;2.22;;;2.10;;
41077;SDS011;26823;42.662;23.352;2023-08-07T02:05:11;3.28;;;2.60;;
41077;SDS011;26823;42.662;23.352;2023-08-07T02:07:37;2.80;;;2.50;;
41077;SDS011;26823;42.662;23.352;2023-08-07T02:10:03;3.25;;;2.90;;
41077;SDS011;26823;42.662;23.352;2023-08-07T02:12:28;2.70;;;2.50;;
41077;SDS011;26823;42.662;23.352;2023-08-07T02:14:57;2.97;;;2.72;;
41077;SDS011;26823;42.662;23.352;2023-08-07T02:17:24;3.13;;;2.90;;
41077;SDS011;26823;42.662;23.352;2023-08-07T02:19:56;2.97;;;2.60;;
41077;SDS011;26823;42.662;23.352;2023-08-07T02:22:22;2.90;;;2.70;;
41077;SDS011;26823;42.662;23.352;2023-08-07T02:24:47;2.92;;;2.72;;
41077;SDS011;26823;42.662;23.352;2023-08-07T02:27:13;3.20;;;2.95;;
41077;SDS011;26823;42.662;23.352;2023-08-07T02:29:38;3.25;;;2.92;;
41077;SDS011;26823;42.662;23.352;2023-08-07T02:32:03;2.90;;;2.70;;
41077;SDS011;26823;42.662;23.352;2023-08-07T02:34:29;3.00;;;2.80;;
41077;SDS011;26823;42.662;23.352;2023-08-07T02:36:55;2.90;;;2.70;;
41077;SDS011;26823;42.662;23.352;2023-08-07T02:39:20;3.00;;;2.80;;
41077;SDS011;26823;42.662;23.352;2023-08-07T02:41:46;2.47;;;2.28;;
41077;SDS011;26823;42.662;23.352;2023-08-07T02:44:11;3.08;;;2.67;;
41077;SDS011;26823;42.662;23.352;2023-08-07T02:46:37;2.60;;;2.40;;
41077;SDS011;26823;42.662;23.352;2023-08-07T02:49:02;3.20;;;2.95;;
41077;SDS011;26823;42.662;23.352;2023-08-07T02:51:28;2.70;;;2.50;;
41077;SDS011;26823;42.662;23.352;2023-08-07T02:53:53;3.75;;;2.88;;
41077;SDS011;26823;42.662;23.352;2023-08-07T02:56:18;4.43;;;2.80;;
41077;SDS011;26823;42.662;23.352;2023-08-07T02:58:50;2.97;;;2.70;;
41077;SDS011;26823;42.662;23.352;2023-08-07T03:01:15;3.20;;;2.90;;
41077;SDS011;26823;42.662;23.352;2023-08-07T03:03:41;3.83;;;2.85;;
41077;SDS011;26823;42.662;23.352;2023-08-07T03:06:06;2.88;;;2.67;;
41077;SDS011;26823;42.662;23.352;2023-08-07T03:08:32;3.03;;;2.78;;
41077;SDS011;26823;42.662;23.352;2023-08-07T03:10:57;3.70;;;3.10;;
41077;SDS011;26823;42.662;23.352;2023-08-07T03:13:23;3.03;;;2.83;;
41077;SDS011;26823;42.662;23.352;2023-08-07T03:15:50;2.97;;;2.78;;
41077;SDS011;26823;42.662;23.352;2023-08-07T03:18:16;2.70;;;2.42;;
41077;SDS011;26823;42.662;23.352;2023-08-07T03:20:42;3.25;;;2.95;;
41077;SDS011;26823;42.662;23.352;2023-08-07T03:23:08;3.15;;;2.90;;
41077;SDS011;26823;42.662;23.352;2023-08-07T03:25:34;3.42;;;3.00;;
41077;SDS011;26823;42.662;23.352;2023-08-07T03:28:00;2.95;;;2.65;;
41077;SDS011;26823;42.662;23.352;2023-08-07T03:30:25;3.13;;;2.88;;
41077;SDS011;26823;42.662;23.352;2023-08-07T03:32:50;2.47;;;2.28;;
41077;SDS011;26823;42.662;23.352;2023-08-07T03:35:16;3.00;;;2.80;;
41077;SDS011;26823;42.662;23.352;2023-08-07T03:37:41;6.32;;;3.05;;
41077;SDS011;26823;42.662;23.352;2023-08-07T03:40:07;3.30;;;3.00;;
41077;SDS011;26823;42.662;23.352;2023-08-07T03:42:32;4.25;;;3.22;;
41077;SDS011;26823;42.662;23.352;2023-08-07T03:44:58;4.70;;;2.95;;
41077;SDS011;26823;42.662;23.352;2023-08-07T03:47:23;3.50;;;3.20;;
41077;SDS011;26823;42.662;23.352;2023-08-07T03:49:49;3.92;;;2.90;;
41077;SDS011;26823;42.662;23.352;2023-08-07T03:52:14;3.40;;;3.10;;
41077;SDS011;26823;42.662;23.352;2023-08-07T03:54:40;3.47;;;3.17;;
41077;SDS011;26823;42.662;23.352;2023-08-07T03:57:05;4.15;;;2.97;;
41077;SDS011;26823;42.662;23.352;2023-08-07T03:59:33;4.32;;;2.97;;
41077;SDS011;26823;42.662;23.352;2023-08-07T04:01:58;3.95;;;2.90;;
41077;SDS011;26823;42.662;23.352;2023-08-07T04:04:24;2.80;;;2.50;;
41077;SDS011;26823;42.662;23.352;2023-08-07T04:06:49;3.92;;;2.70;;
41077;SDS011;26823;42.662;23.352;2023-08-07T04:09:14;2.72;;;2.53;;
41077;SDS011;26823;42.662;23.352;2023-08-07T04:11:42;3.80;;;2.70;;
41077;SDS011;26823;42.662;23.352;2023-08-07T04:14:07;3.58;;;3.03;;
41077;SDS011;26823;42.662;23.352;2023-08-07T04:16:32;3.53;;;2.80;;
41077;SDS011;26823;42.662;23.352;2023-08-07T04:18:58;2.90;;;2.63;;
41077;SDS011;26823;42.662;23.352;2023-08-07T04:21:23;3.45;;;3.08;;
41077;SDS011;26823;42.662;23.352;2023-08-07T04:23:49;4.82;;;2.88;;
41077;SDS011;26823;42.662;23.352;2023-08-07T04:26:14;3.10;;;2.90;;
41077;SDS011;26823;42.662;23.352;2023-08-07T04:28:40;3.65;;;2.78;;
41077;SDS011;26823;42.662;23.352;2023-08-07T04:31:05;3.20;;;2.90;;
41077;SDS011;26823;42.662;23.352;2023-08-07T04:33:31;3.40;;;2.97;;
41077;SDS011;26823;42.662;23.352;2023-08-07T04:35:56;3.58;;;3.28;;
41077;SDS011;26823;42.662;23.352;2023-08-07T04:38:21;3.13;;;2.72;;
41077;SDS011;26823;42.662;23.352;2023-08-07T04:40:47;5.13;;;2.60;;
41077;SDS011;26823;42.662;23.352;2023-08-07T04:43:14;2.70;;;2.50;;
41077;SDS011;26823;42.662;23.352;2023-08-07T04:45:41;3.95;;;3.53;;
41077;SDS011;26823;42.662;23.352;2023-08-07T04:48:07;3.03;;;2.70;;
41077;SDS011;26823;42.662;23.352;2023-08-07T04:50:32;2.80;;;2.60;;
41077;SDS011;26823;42.662;23.352;2023-08-07T04:52:58;3.40;;;3.00;;
41077;SDS011;26823;42.662;23.352;2023-08-07T04:55:23;4.60;;;2.90;;
41077;SDS011;26823;42.662;23.352;2023-08-07T04:57:55;2.70;;;2.50;;
41077;SDS011;26823;42.662;23.352;2023-08-07T05:00:21;3.47;;;2.60;;
41077;SDS011;26823;42.662;23.352;2023-08-07T05:02:47;2.63;;;2.42;;
41077;SDS011;26823;42.662;23.352;2023-08-07T05:05:13;2.95;;;2.70;;
41077;SDS011;26823;42.662;23.352;2023-08-07T05:07:39;2.45;;;2.25;;
41077;SDS011;26823;42.662;23.352;2023-08-07T05:10:05;2.58;;;2.38;;
41077;SDS011;26823;42.662;23.352;2023-08-07T05:12:31;2.88;;;2.42;;
41077;SDS011;26823;42.662;23.352;2023-08-07T05:14:57;3.95;;;2.72;;
41077;SDS011;26823;42.662;23.352;2023-08-07T05:17:22;3.08;;;2.75;;
41077;SDS011;26823;42.662;23.352;2023-08-07T05:19:47;2.92;;;2.70;;
41077;SDS011;26823;42.662;23.352;2023-08-07T05:22:13;3.00;;;2.40;;
41077;SDS011;26823;42.662;23.352;2023-08-07T05:24:38;3.03;;;2.45;;
41077;SDS011;26823;42.662;23.352;2023-08-07T05:27:07;2.90;;;2.42;;
41077;SDS011;26823;42.662;23.352;2023-08-07T05:29:33;2.70;;;2.50;;
41077;SDS011;26823;42.662;23.352;2023-08-07T05:31:59;5.18;;;2.83;;
41077;SDS011;26823;42.662;23.352;2023-08-07T05:34:24;2.67;;;2.45;;
41077;SDS011;26823;42.662;23.352;2023-08-07T05:36:50;2.90;;;2.30;;
41077;SDS011;26823;42.662;23.352;2023-08-07T05:39:15;2.75;;;2.42;;
41077;SDS011;26823;42.662;23.352;2023-08-07T05:41:41;2.22;;;2.08;;
41077;SDS011;26823;42.662;23.352;2023-08-07T05:44:07;3.35;;;2.50;;
41077;SDS011;26823;42.662;23.352;2023-08-07T05:46:32;7.22;;;2.22;;
41077;SDS011;26823;42.662;23.352;2023-08-07T05:48:57;4.05;;;2.10;;
41077;SDS011;26823;42.662;23.352;2023-08-07T05:51:23;2.35;;;2.15;;
41077;SDS011;26823;42.662;23.352;2023-08-07T05:53:48;2.85;;;2.65;;
41077;SDS011;26823;42.662;23.352;2023-08-07T05:56:13;2.90;;;2.70;;
41077;SDS011;26823;42.662;23.352;2023-08-07T05:58:39;2.40;;;2.20;;
41077;SDS011;26823;42.662;23.352;2023-08-07T06:01:05;2.50;;;2.30;;
41077;SDS011;26823;42.662;23.352;2023-08-07T06:03:30;2.58;;;2.20;;
41077;SDS011;26823;42.662;23.352;2023-08-07T06:05:56;2.22;;;2.08;;
41077;SDS011;26823;42.662;23.352;2023-08-07T06:08:22;2.15;;;1.95;;
41077;SDS011;26823;42.662;23.352;2023-08-07T06:10:47;2.25;;;2.05;;
41077;SDS011;26823;42.662;23.352;2023-08-07T06:13:13;2.28;;;1.90;;
41077;SDS011;26823;42.662;23.352;2023-08-07T06:15:38;2.55;;;2.35;;
41077;SDS011;26823;42.662;23.352;2023-08-07T06:18:04;6.13;;;2.45;;
41077;SDS011;26823;42.662;23.352;2023-08-07T06:20:29;4.10;;;3.28;;
41077;SDS011;26823;42.662;23.352;2023-08-07T06:22:55;2.92;;;2.30;;
41077;SDS011;26823;42.662;23.352;2023-08-07T06:25:20;4.32;;;2.40;;
41077;SDS011;26823;42.662;23.352;2023-08-07T06:27:46;2.88;;;2.08;;
41077;SDS011;26823;42.662;23.352;2023-08-07T06:30:11;5.05;;;3.20;;
41077;SDS011;26823;42.662;23.352;2023-08-07T06:32:37;4.30;;;2.38;;
41077;SDS011;26823;42.662;23.352;2023-08-07T06:35:03;4.57;;;2.88;;
41077;SDS011;26823;42.662;23.352;2023-08-07T06:37:29;2.17;;;2.08;;
41077;SDS011;26823;42.662;23.352;2023-08-07T06:39:55;2.13;;;1.85;;
41077;SDS011;26823;42.662;23.352;2023-08-07T06:42:20;3.38;;;1.70;;
41077;SDS011;26823;42.662;23.352;2023-08-07T06:44:46;11.90;;;2.53;;
41077;SDS011;26823;42.662;23.352;2023-08-07T06:47:12;1.70;;;1.60;;
41077;SDS011;26823;42.662;23.352;2023-08-07T06:49:37;3.08;;;1.33;;
41077;SDS011;26823;42.662;23.352;2023-08-07T06:52:02;4.07;;;1.33;;
41077;SDS011;26823;42.662;23.352;2023-08-07T06:54:28;6.15;;;1.42;;
41077;SDS011;26823;42.662;23.352;2023-08-07T06:56:53;5.93;;;1.40;;
41077;SDS011;26823;42.662;23.352;2023-08-07T06:59:19;1.70;;;0.93;;
41077;SDS011;26823;42.662;23.352;2023-08-07T07:01:44;1.88;;;1.50;;
41077;SDS011;26823;42.662;23.352;2023-08-07T07:04:10;3.13;;;1.20;;
41077;SDS011;26823;42.662;23.352;2023-08-07T07:06:36;2.30;;;1.52;;
41077;SDS011;26823;42.662;23.352;2023-08-07T07:09:02;2.95;;;1.20;;
41077;SDS011;26823;42.662;23.352;2023-08-07T07:11:27;1.73;;;1.20;;
41077;SDS011;26823;42.662;23.352;2023-08-07T07:13:53;1.27;;;1.17;;
41077;SDS011;26823;42.662;23.352;2023-08-07T07:16:18;1.77;;;1.10;;
41077;SDS011;26823;42.662;23.352;2023-08-07T07:18:46;1.25;;;1.00;;
41077;SDS011;26823;42.662;23.352;2023-08-07T07:21:15;0.68;;;0.68;;
41077;SDS011;26823;42.662;23.352;2023-08-07T07:23:40;1.30;;;1.10;;
41077;SDS011;26823;42.662;23.352;2023-08-07T07:26:06;2.08;;;1.08;;
41077;SDS011;26823;42.662;23.352;2023-08-07T07:28:31;0.90;;;0.90;;
41077;SDS011;26823;42.662;23.352;2023-08-07T07:30:56;1.30;;;1.02;;
41077;SDS011;26823;42.662;23.352;2023-08-07T07:33:22;0.85;;;0.85;;
41077;SDS011;26823;42.662;23.352;2023-08-07T07:35:47;1.40;;;1.30;;
41077;SDS011;26823;42.662;23.352;2023-08-07T07:38:13;1.20;;;1.10;;
41077;SDS011;26823;42.662;23.352;2023-08-07T07:40:40;0.98;;;0.93;;
41077;SDS011;26823;42.662;23.352;2023-08-07T07:43:06;1.00;;;1.00;;
41077;SDS011;26823;42.662;23.352;2023-08-07T07:45:31;0.95;;;0.95;;
41077;SDS011;26823;42.662;23.352;2023-08-07T07:47:58;1.27;;;1.00;;
41077;SDS011;26823;42.662;23.352;2023-08-07T07:50:24;1.40;;;1.30;;
41077;SDS011;26823;42.662;23.352;2023-08-07T07:52:49;1.55;;;1.20;;
41077;SDS011;26823;42.662;23.352;2023-08-07T07:55:15;2.40;;;0.93;;
41077;SDS011;26823;42.662;23.352;2023-08-07T07:57:40;1.52;;;1.42;;
41077;SDS011;26823;42.662;23.352;2023-08-07T08:00:06;1.70;;;1.60;;
41077;SDS011;26823;42.662;23.352;2023-08-07T08:02:35;1.38;;;1.27;;
41077;SDS011;26823;42.662;23.352;2023-08-07T08:05:01;1.20;;;1.13;;
41077;SDS011;26823;42.662;23.352;2023-08-07T08:07:27;1.48;;;1.08;;
41077;SDS011;26823;42.662;23.352;2023-08-07T08:09:52;2.30;;;2.05;;
41077;SDS011;26823;42.662;23.352;2023-08-07T08:12:18;1.92;;;1.23;;
41077;SDS011;26823;42.662;23.352;2023-08-07T08:14:43;3.42;;;1.70;;
41077;SDS011;26823;42.662;23.352;2023-08-07T08:17:08;3.70;;;1.10;;
41077;SDS011;26823;42.662;23.352;2023-08-07T08:19:34;1.63;;;1.10;;
41077;SDS011;26823;42.662;23.352;2023-08-07T08:22:00;2.38;;;1.13;;
41077;SDS011;26823;42.662;23.352;2023-08-07T08:24:25;2.58;;;1.35;;
41077;SDS011;26823;42.662;23.352;2023-08-07T08:26:51;1.00;;;1.00;;
41077;SDS011;26823;42.662;23.352;2023-08-07T08:29:16;1.90;;;1.13;;
41077;SDS011;26823;42.662;23.352;2023-08-07T08:31:42;1.10;;;1.00;;
41077;SDS011;26823;42.662;23.352;2023-08-07T08:34:07;1.27;;;1.25;;
41077;SDS011;26823;42.662;23.352;2023-08-07T08:36:32;1.10;;;1.08;;
41077;SDS011;26823;42.662;23.352;2023-08-07T08:38:58;1.40;;;1.25;;
41077;SDS011;26823;42.662;23.352;2023-08-07T08:41:23;1.40;;;1.10;;
41077;SDS011;26823;42.662;23.352;2023-08-07T08:43:49;1.50;;;1.10;;
41077;SDS011;26823;42.662;23.352;2023-08-07T08:46:18;2.38;;;1.23;;
41077;SDS011;26823;42.662;23.352;2023-08-07T08:48:46;1.90;;;1.70;;
41077;SDS011;26823;42.662;23.352;2023-08-07T08:51:21;2.33;;;1.00;;
41077;SDS011;26823;42.662;23.352;2023-08-07T08:53:47;1.17;;;1.05;;
41077;SDS011;26823;42.662;23.352;2023-08-07T08:56:14;1.13;;;0.90;;
41077;SDS011;26823;42.662;23.352;2023-08-07T08:58:40;1.23;;;1.05;;
41077;SDS011;26823;42.662;23.352;2023-08-07T09:01:06;1.20;;;1.10;;
41077;SDS011;26823;42.662;23.352;2023-08-07T09:03:36;1.60;;;1.50;;
41077;SDS011;26823;42.662;23.352;2023-08-07T09:06:01;1.42;;;1.10;;
41077;SDS011;26823;42.662;23.352;2023-08-07T09:08:27;1.40;;;1.30;;
41077;SDS011;26823;42.662;23.352;2023-08-07T09:10:56;1.42;;;1.20;;
41077;SDS011;26823;42.662;23.352;2023-08-07T09:13:22;3.40;;;1.10;;
41077;SDS011;26823;42.662;23.352;2023-08-07T09:15:49;1.30;;;1.20;;
41077;SDS011;26823;42.662;23.352;2023-08-07T09:18:16;1.27;;;1.17;;
41077;SDS011;26823;42.662;23.352;2023-08-07T09:20:43;1.17;;;1.17;;
41077;SDS011;26823;42.662;23.352;2023-08-07T09:23:08;2.45;;;1.60;;
41077;SDS011;26823;42.662;23.352;2023-08-07T09:25:34;2.47;;;1.25;;
41077;SDS011;26823;42.662;23.352;2023-08-07T09:28:03;1.48;;;1.25;;
41077;SDS011;26823;42.662;23.352;2023-08-07T09:30:30;3.28;;;1.08;;
41077;SDS011;26823;42.662;23.352;2023-08-07T09:32:56;1.35;;;1.25;;
41077;SDS011;26823;42.662;23.352;2023-08-07T09:35:23;2.28;;;1.23;;
41077;SDS011;26823;42.662;23.352;2023-08-07T09:37:48;2.25;;;1.20;;
41077;SDS011;26823;42.662;23.352;2023-08-07T09:40:14;1.42;;;1.10;;
41077;SDS011;26823;42.662;23.352;2023-08-07T09:42:41;1.67;;;0.98;;
41077;SDS011;26823;42.662;23.352;2023-08-07T09:45:22;1.30;;;1.17;;
41077;SDS011;26823;42.662;23.352;2023-08-07T09:47:59;4.88;;;1.27;;
41077;SDS011;26823;42.662;23.352;2023-08-07T09:50:29;1.27;;;1.17;;
41077;SDS011;26823;42.662;23.352;2023-08-07T09:52:55;1.50;;;1.40;;
41077;SDS011;26823;42.662;23.352;2023-08-07T09:55:21;1.85;;;1.48;;
41077;SDS011;26823;42.662;23.352;2023-08-07T09:57:47;1.38;;;1.02;;
41077;SDS011;26823;42.662;23.352;2023-08-07T10:00:14;1.92;;;1.30;;
41077;SDS011;26823;42.662;23.352;2023-08-07T10:02:40;4.50;;;1.70;;
41077;SDS011;26823;42.662;23.352;2023-08-07T10:05:07;1.33;;;1.23;;
41077;SDS011;26823;42.662;23.352;2023-08-07T10:07:35;1.50;;;1.20;;
41077;SDS011;26823;42.662;23.352;2023-08-07T10:10:02;1.33;;;1.20;;
41077;SDS011;26823;42.662;23.352;2023-08-07T10:12:28;3.05;;;1.40;;
41077;SDS011;26823;42.662;23.352;2023-08-07T10:14:54;2.72;;;1.27;;
41077;SDS011;26823;42.662;23.352;2023-08-07T10:17:23;1.38;;;1.10;;
41077;SDS011;26823;42.662;23.352;2023-08-07T10:19:48;1.30;;;1.20;;
41077;SDS011;26823;42.662;23.352;2023-08-07T10:22:15;1.50;;;1.40;;
41077;SDS011;26823;42.662;23.352;2023-08-07T10:24:42;2.55;;;1.30;;
41077;SDS011;26823;42.662;23.352;2023-08-07T10:27:11;1.20;;;1.10;;
41077;SDS011;26823;42.662;23.352;2023-08-07T10:29:40;1.52;;;1.30;;
41077;SDS011;26823;42.662;23.352;2023-08-07T10:32:07;4.57;;;1.27;;
41077;SDS011;26823;42.662;23.352;2023-08-07T10:34:33;3.70;;;1.20;;
41077;SDS011;26823;42.662;23.352;2023-08-07T10:36:59;1.17;;;1.08;;
41077;SDS011;26823;42.662;23.352;2023-08-07T10:39:24;1.20;;;1.10;;
41077;SDS011;26823;42.662;23.352;2023-08-07T10:41:52;1.23;;;1.13;;
41077;SDS011;26823;42.662;23.352;2023-08-07T10:44:22;2.75;;;1.30;;
41077;SDS011;26823;42.662;23.352;2023-08-07T10:46:52;1.30;;;1.20;;
41077;SDS011;26823;42.662;23.352;2023-08-07T10:52:17;1.52;;;1.10;;
41077;SDS011;26823;42.662;23.352;2023-08-07T10:54:49;1.00;;;1.00;;
41077;SDS011;26823;42.662;23.352;2023-08-07T10:57:16;1.00;;;1.00;;
41077;SDS011;26823;42.662;23.352;2023-08-07T10:59:49;1.15;;;1.05;;
41077;SDS011;26823;42.662;23.352;2023-08-07T11:02:22;1.35;;;1.25;;
41077;SDS011;26823;42.662;23.352;2023-08-07T11:04:52;1.25;;;1.15;;
41077;SDS011;26823;42.662;23.352;2023-08-07T11:09:53;3.08;;;1.20;;
41077;SDS011;26823;42.662;23.352;2023-08-07T11:12:19;1.30;;;1.20;;
41077;SDS011;26823;42.662;23.352;2023-08-07T11:14:45;2.10;;;1.90;;
41077;SDS011;26823;42.662;23.352;2023-08-07T11:17:11;1.95;;;1.52;;
41077;SDS011;26823;42.662;23.352;2023-08-07T11:19:37;2.28;;;1.33;;
41077;SDS011;26823;42.662;23.352;2023-08-07T11:22:03;2.47;;;1.58;;
41077;SDS011;26823;42.662;23.352;2023-08-07T11:24:29;1.85;;;1.67;;
41077;SDS011;26823;42.662;23.352;2023-08-07T11:26:55;2.03;;;1.42;;
41077;SDS011;26823;42.662;23.352;2023-08-07T11:29:22;3.70;;;1.60;;
41077;SDS011;26823;42.662;23.352;2023-08-07T11:31:50;3.78;;;1.20;;
41077;SDS011;26823;42.662;23.352;2023-08-07T11:34:19;2.30;;;1.38;;
41077;SDS011;26823;42.662;23.352;2023-08-07T11:36:45;2.38;;;1.20;;
41077;SDS011;26823;42.662;23.352;2023-08-07T11:39:11;2.03;;;1.20;;
41077;SDS011;26823;42.662;23.352;2023-08-07T11:41:42;3.15;;;1.60;;
41077;SDS011;26823;42.662;23.352;2023-08-07T11:44:12;1.05;;;1.05;;
41077;SDS011;26823;42.662;23.352;2023-08-07T11:46:41;1.85;;;1.30;;
41077;SDS011;26823;42.662;23.352;2023-08-07T11:49:08;1.20;;;1.10;;
41077;SDS011;26823;42.662;23.352;2023-08-07T11:51:35;1.52;;;1.05;;
41077;SDS011;26823;42.662;23.352;2023-08-07T11:54:00;2.78;;;1.33;;
41077;SDS011;26823;42.662;23.352;2023-08-07T11:56:32;1.25;;;1.25;;
41077;SDS011;26823;42.662;23.352;2023-08-07T11:58:57;1.05;;;1.00;;
41077;SDS011;26823;42.662;23.352;2023-08-07T12:01:24;1.23;;;1.13;;
41077;SDS011;26823;42.662;23.352;2023-08-07T12:03:52;2.40;;;1.33;;
41077;SDS011;26823;42.662;23.352;2023-08-07T12:06:24;1.85;;;1.55;;
41077;SDS011;26823;42.662;23.352;2023-08-07T12:08:53;2.10;;;1.17;;
41077;SDS011;26823;42.662;23.352;2023-08-07T12:11:20;3.28;;;1.10;;
41077;SDS011;26823;42.662;23.352;2023-08-07T12:13:49;2.10;;;1.20;;
41077;SDS011;26823;42.662;23.352;2023-08-07T12:16:15;1.35;;;1.25;;
41077;SDS011;26823;42.662;23.352;2023-08-07T12:18:45;2.95;;;1.60;;
41077;SDS011;26823;42.662;23.352;2023-08-07T12:21:21;2.83;;;1.90;;
41077;SDS011;26823;42.662;23.352;2023-08-07T12:23:51;2.22;;;1.70;;
41077;SDS011;26823;42.662;23.352;2023-08-07T12:26:20;1.95;;;1.60;;
41077;SDS011;26823;42.662;23.352;2023-08-07T12:28:45;1.95;;;1.45;;
41077;SDS011;26823;42.662;23.352;2023-08-07T12:31:11;1.20;;;1.20;;
41077;SDS011;26823;42.662;23.352;2023-08-07T12:33:36;2.08;;;1.30;;
41077;SDS011;26823;42.662;23.352;2023-08-07T12:36:02;1.77;;;1.27;;
41077;SDS011;26823;42.662;23.352;2023-08-07T12:38:27;1.75;;;1.58;;
41077;SDS011;26823;42.662;23.352;2023-08-07T12:40:53;1.30;;;1.20;;
41077;SDS011;26823;42.662;23.352;2023-08-07T12:43:19;2.70;;;1.25;;
41077;SDS011;26823;42.662;23.352;2023-08-07T12:45:45;1.30;;;1.20;;
41077;SDS011;26823;42.662;23.352;2023-08-07T12:48:10;1.40;;;1.27;;
41077;SDS011;26823;42.662;23.352;2023-08-07T12:50:36;1.60;;;1.30;;
41077;SDS011;26823;42.662;23.352;2023-08-07T12:53:02;1.33;;;0.93;;
41077;SDS011;26823;42.662;23.352;2023-08-07T12:55:28;1.42;;;1.33;;
41077;SDS011;26823;42.662;23.352;2023-08-07T12:57:54;1.50;;;1.40;;
41077;SDS011;26823;42.662;23.352;2023-08-07T13:00:20;1.50;;;1.40;;
41077;SDS011;26823;42.662;23.352;2023-08-07T13:02:47;1.55;;;1.45;;
41077;SDS011;26823;42.662;23.352;2023-08-07T13:05:14;1.60;;;1.50;;
41077;SDS011;26823;42.662;23.352;2023-08-07T13:07:41;1.55;;;1.42;;
41077;SDS011;26823;42.662;23.352;2023-08-07T13:10:08;3.05;;;1.52;;
41077;SDS011;26823;42.662;23.352;2023-08-07T13:12:36;1.50;;;1.40;;
41077;SDS011;26823;42.662;23.352;2023-08-07T13:15:06;1.40;;;1.30;;
41077;SDS011;26823;42.662;23.352;2023-08-07T13:17:33;1.55;;;1.40;;
41077;SDS011;26823;42.662;23.352;2023-08-07T13:20:02;1.90;;;1.40;;
41077;SDS011;26823;42.662;23.352;2023-08-07T13:22:32;1.73;;;1.63;;
41077;SDS011;26823;42.662;23.352;2023-08-07T13:25:08;3.83;;;2.15;;
41077;SDS011;26823;42.662;23.352;2023-08-07T13:27:35;3.17;;;1.30;;
41077;SDS011;26823;42.662;23.352;2023-08-07T13:30:00;3.45;;;1.40;;
41077;SDS011;26823;42.662;23.352;2023-08-07T13:32:27;1.70;;;1.20;;
41077;SDS011;26823;42.662;23.352;2023-08-07T13:34:53;3.42;;;1.35;;
41077;SDS011;26823;42.662;23.352;2023-08-07T13:37:19;2.88;;;1.70;;
41077;SDS011;26823;42.662;23.352;2023-08-07T13:39:45;1.70;;;1.38;;
41077;SDS011;26823;42.662;23.352;2023-08-07T13:42:10;1.30;;;1.00;;
41077;SDS011;26823;42.662;23.352;2023-08-07T13:44:38;5.07;;;1.35;;
41077;SDS011;26823;42.662;23.352;2023-08-07T13:47:04;1.77;;;1.48;;
41077;SDS011;26823;42.662;23.352;2023-08-07T13:49:30;1.10;;;1.10;;
41077;SDS011;26823;42.662;23.352;2023-08-07T13:51:56;1.35;;;1.15;;
41077;SDS011;26823;42.662;23.352;2023-08-07T13:54:21;1.40;;;1.30;;
41077;SDS011;26823;42.662;23.352;2023-08-07T13:56:47;1.58;;;1.48;;
41077;SDS011;26823;42.662;23.352;2023-08-07T13:59:12;1.42;;;1.17;;
41077;SDS011;26823;42.662;23.352;2023-08-07T14:01:38;1.20;;;1.10;;
41077;SDS011;26823;42.662;23.352;2023-08-07T14:04:03;1.60;;;1.20;;
41077;SDS011;26823;42.662;23.352;2023-08-07T14:06:29;1.30;;;1.27;;
41077;SDS011;26823;42.662;23.352;2023-08-07T14:08:54;1.75;;;1.40;;
41077;SDS011;26823;42.662;23.352;2023-08-07T14:11:20;3.60;;;1.45;;
41077;SDS011;26823;42.662;23.352;2023-08-07T14:13:46;1.67;;;1.58;;
41077;SDS011;26823;42.662;23.352;2023-08-07T14:16:12;1.67;;;1.20;;
41077;SDS011;26823;42.662;23.352;2023-08-07T14:18:38;1.38;;;1.13;;
41077;SDS011;26823;42.662;23.352;2023-08-07T14:21:03;1.50;;;1.40;;
41077;SDS011;26823;42.662;23.352;2023-08-07T14:23:29;1.45;;;1.27;;
41077;SDS011;26823;42.662;23.352;2023-08-07T14:25:55;2.53;;;1.65;;
41077;SDS011;26823;42.662;23.352;2023-08-07T14:28:20;1.20;;;1.10;;
41077;SDS011;26823;42.662;23.352;2023-08-07T14:30:45;1.40;;;1.30;;
41077;SDS011;26823;42.662;23.352;2023-08-07T14:33:12;3.47;;;1.30;;
41077;SDS011;26823;42.662;23.352;2023-08-07T14:35:38;1.38;;;1.20;;
41077;SDS011;26823;42.662;23.352;2023-08-07T14:38:03;1.45;;;1.30;;